Time;durP1;ratioP1;P1;durP2;ratioP2;P2;SDS_P1;SDS_P2;PMS_P1;PMS_P2;Temp;Humidity;BMP_temperature;BMP_pressure;BME280_temperature;BME280_humidity;BME280_pressure;Samples;Min_cycle;Max_cycle;Signal;HPM_P1;HPM_P2
2021/03/16 00:00:42;;;;;;;13.38;3.92;;;;;;;2.64;100.00;97274.78;5071120;28;20067;-75
2021/03/16 00:03:09;;;;;;;13.45;4.57;;;;;;;2.45;100.00;97294.06;5069857;28;20037;-76
2021/03/16 00:05:35;;;;;;;14.48;4.43;;;;;;;2.32;100.00;97299.97;5070385;28;20058;-76
2021/03/16 00:08:02;;;;;;;9.02;4.72;;;;;;;2.19;100.00;97297.09;5070454;28;20041;-76
2021/03/16 00:10:28;;;;;;;11.10;4.45;;;;;;;1.99;100.00;97311.22;5070647;28;20052;-77
2021/03/16 00:12:54;;;;;;;14.68;5.10;;;;;;;1.84;100.00;97313.91;5070640;28;20499;-77
2021/03/16 00:15:20;;;;;;;17.52;5.47;;;;;;;1.74;100.00;97327.25;5052413;28;20326;-77
2021/03/16 00:17:47;;;;;;;20.17;6.68;;;;;;;1.65;100.00;97324.28;5069219;28;20055;-76
2021/03/16 00:20:13;;;;;;;15.80;7.03;;;;;;;1.67;100.00;97329.38;5070170;28;20048;-77
2021/03/16 00:22:39;;;;;;;16.95;7.88;;;;;;;1.66;100.00;97338.44;5070205;28;20047;-76
2021/03/16 00:25:13;;;;;;;21.90;8.55;;;;;;;1.68;100.00;97325.63;5068518;28;20332;-76
2021/03/16 00:27:39;;;;;;;18.10;9.07;;;;;;;1.64;100.00;97327.25;5070114;28;20158;-76
2021/03/16 00:30:07;;;;;;;20.00;8.82;;;;;;;1.70;100.00;97339.53;5070139;28;20579;-76
2021/03/16 00:32:33;;;;;;;18.30;9.20;;;;;;;1.69;100.00;97340.56;5069212;28;20052;-77
2021/03/16 00:34:59;;;;;;;23.23;9.73;;;;;;;1.62;100.00;97340.03;5070511;28;20048;-77
2021/03/16 00:37:26;;;;;;;18.45;8.90;;;;;;;1.65;100.00;97352.84;5068915;28;20075;-76
2021/03/16 00:39:53;;;;;;;19.00;8.25;;;;;;;1.61;100.00;97343.75;5069823;28;20045;-76
2021/03/16 00:42:19;;;;;;;16.88;8.43;;;;;;;1.58;100.00;97360.28;5067860;28;20041;-77
2021/03/16 00:44:45;;;;;;;18.35;8.27;;;;;;;1.51;100.00;97336.56;5069318;28;20049;-76
2021/03/16 00:47:11;;;;;;;17.08;6.97;;;;;;;1.42;100.00;97359.47;5069208;28;20046;-76
2021/03/16 00:49:37;;;;;;;14.10;6.75;;;;;;;1.24;100.00;97351.94;5069246;28;20041;-76
2021/03/16 00:52:04;;;;;;;10.88;6.20;;;;;;;1.11;100.00;97352.44;5069131;28;20059;-77
2021/03/16 00:54:30;;;;;;;15.50;6.97;;;;;;;1.10;100.00;97359.63;5068778;28;20082;-77
2021/03/16 00:56:56;;;;;;;18.17;8.18;;;;;;;1.06;100.00;97366.53;5070398;28;20044;-78
2021/03/16 00:59:22;;;;;;;17.27;7.00;;;;;;;1.04;100.00;97357.19;5070297;28;20048;-76
2021/03/16 01:01:48;;;;;;;12.77;6.10;;;;;;;1.02;100.00;97372.66;5071299;28;20475;-77
2021/03/16 01:04:15;;;;;;;18.23;7.25;;;;;;;0.99;100.00;97379.31;5071365;28;20052;-78
2021/03/16 01:06:41;;;;;;;12.98;7.20;;;;;;;0.96;100.00;97376.34;5084517;28;20047;-77
2021/03/16 01:09:07;;;;;;;14.13;7.15;;;;;;;0.96;100.00;97363.03;5079681;28;20051;-77
2021/03/16 01:11:33;;;;;;;14.93;7.82;;;;;;;0.98;100.00;97377.69;5067735;28;20529;-76
2021/03/16 01:13:59;;;;;;;20.50;9.73;;;;;;;0.98;100.00;97388.34;5069204;28;20044;-76
2021/03/16 01:16:26;;;;;;;18.73;9.30;;;;;;;0.99;100.00;97381.97;5069831;28;20052;-77
2021/03/16 01:18:52;;;;;;;27.42;10.38;;;;;;;0.97;100.00;97378.78;5070254;28;20044;-77
2021/03/16 01:21:18;;;;;;;27.45;10.65;;;;;;;0.99;100.00;97386.50;5070730;28;20048;-77
2021/03/16 01:23:44;;;;;;;25.50;10.73;;;;;;;1.00;100.00;97383.59;5068699;28;20048;-76
2021/03/16 01:26:10;;;;;;;28.92;12.32;;;;;;;1.05;100.00;97388.94;5068593;28;20044;-77
2021/03/16 01:28:36;;;;;;;27.45;12.95;;;;;;;1.09;100.00;97379.34;5067323;28;20044;-77
2021/03/16 01:31:07;;;;;;;26.67;13.88;;;;;;;1.17;100.00;97386.03;5067939;28;20048;-77
2021/03/16 01:33:34;;;;;;;31.65;13.73;;;;;;;1.20;100.00;97391.66;5066693;28;20045;-77
2021/03/16 01:36:00;;;;;;;30.52;13.63;;;;;;;1.19;100.00;97389.25;5067574;28;20033;-76
2021/03/16 01:38:26;;;;;;;30.75;13.73;;;;;;;1.21;100.00;97395.13;5066551;28;20049;-76
2021/03/16 01:40:52;;;;;;;28.98;13.35;;;;;;;1.21;100.00;97390.59;5066871;28;20072;-76
2021/03/16 01:43:24;;;;;;;26.13;12.90;;;;;;;1.23;100.00;97396.47;5068790;28;20604;-76
2021/03/16 01:45:50;;;;;;;32.72;14.02;;;;;;;1.18;100.00;97393.78;5067393;28;20059;-76
2021/03/16 01:48:25;;;;;;;34.58;13.73;;;;;;;1.16;100.00;97389.78;5068092;28;20041;-76
2021/03/16 01:50:52;;;;;;;30.02;13.88;;;;;;;1.16;100.00;97393.22;5066341;28;20349;-76
2021/03/16 01:53:20;;;;;;;30.33;13.20;;;;;;;1.12;100.00;97391.34;5067211;28;20040;-74
2021/03/16 01:55:49;;;;;;;34.67;14.05;;;;;;;1.10;100.00;97404.16;5068701;28;20534;-78
2021/03/16 01:58:16;;;;;;;35.35;14.85;;;;;;;1.10;100.00;97407.63;5069489;28;20052;-77
2021/03/16 02:00:43;;;;;;;30.17;13.88;;;;;;;1.09;100.00;97406.00;5068418;28;20131;-76
2021/03/16 02:03:13;;;;;;;34.38;14.55;;;;;;;1.15;100.00;97404.97;5069463;28;20484;-76
2021/03/16 02:05:43;;;;;;;40.47;16.65;;;;;;;1.19;100.00;97414.03;5069615;28;20101;-77
2021/03/16 02:08:31;;;;;;;41.85;17.05;;;;;;;1.20;100.00;97405.00;5068653;28;20131;-77
2021/03/16 02:11:13;;;;;;;38.17;17.23;;;;;;;1.16;100.00;97409.22;5068314;28;20068;-76
2021/03/16 02:13:54;;;;;;;41.20;17.42;;;;;;;1.15;100.00;97401.50;5067974;28;20048;-77
2021/03/16 02:16:37;;;;;;;45.75;18.23;;;;;;;1.18;100.00;97412.47;5067593;28;20056;-76
2021/03/16 02:19:12;;;;;;;41.75;18.30;;;;;;;1.20;100.00;97405.00;5070760;28;20040;-77
2021/03/16 02:21:43;;;;;;;43.28;19.85;;;;;;;1.22;100.00;97410.88;5068780;28;20040;-76
2021/03/16 02:24:17;;;;;;;41.90;18.10;;;;;;;1.24;100.00;97426.59;5067604;28;20047;-76
2021/03/16 02:27:16;;;;;;;42.88;18.58;;;;;;;1.23;100.00;97420.47;5050364;28;20135;-75
2021/03/16 02:29:55;;;;;;;46.85;18.80;;;;;;;1.24;100.00;97424.72;5066962;28;20045;-76
2021/03/16 02:32:24;;;;;;;38.65;17.98;;;;;;;1.22;100.00;97421.53;5066164;28;20543;-75
2021/03/16 02:35:02;;;;;;;34.70;17.17;;;;;;;1.23;100.00;97419.66;5067710;28;20037;-75
2021/03/16 02:37:33;;;;;;;42.85;18.27;;;;;;;1.20;100.00;97426.31;5067054;28;20120;-76
2021/03/16 02:40:01;;;;;;;42.60;19.17;;;;;;;1.23;100.00;97431.13;5068947;28;20064;-75
2021/03/16 02:42:27;;;;;;;42.25;18.70;;;;;;;1.24;100.00;97429.25;5071168;28;20510;-76
2021/03/16 02:44:54;;;;;;;42.85;18.30;;;;;;;1.27;100.00;97434.06;5071115;28;20044;-76
2021/03/16 02:47:21;;;;;;;48.58;20.10;;;;;;;1.30;100.00;97438.06;5071032;28;20467;-76
2021/03/16 02:49:48;;;;;;;39.10;18.60;;;;;;;1.36;100.00;97423.72;5070837;28;20045;-77
2021/03/16 02:52:16;;;;;;;54.80;19.63;;;;;;;1.36;100.00;97429.06;5070538;28;20102;-76
2021/03/16 02:54:43;;;;;;;45.50;19.67;;;;;;;1.41;100.00;97431.72;5053302;28;20041;-77
2021/03/16 02:57:14;;;;;;;45.40;19.95;;;;;;;1.43;100.00;97443.75;5071997;28;20307;-76
2021/03/16 02:59:41;;;;;;;45.80;19.10;;;;;;;1.46;100.00;97443.22;5071131;28;20114;-76
2021/03/16 03:02:15;;;;;;;53.00;19.40;;;;;;;1.49;100.00;97460.56;5069880;28;20048;-76
2021/03/16 03:04:45;;;;;;;40.83;18.70;;;;;;;1.48;100.00;97464.28;5071484;28;20040;-76
2021/03/16 03:07:14;;;;;;;38.22;18.20;;;;;;;1.50;100.00;97457.63;5071552;28;20411;-76
2021/03/16 03:09:40;;;;;;;42.70;18.65;;;;;;;1.50;100.00;97464.81;5071118;28;20044;-77
2021/03/16 03:12:08;;;;;;;41.72;18.67;;;;;;;1.49;100.00;97469.38;5068940;28;20045;-77
2021/03/16 03:14:37;;;;;;;40.97;19.45;;;;;;;1.54;100.00;97468.59;5069649;28;20472;-76
2021/03/16 03:17:08;;;;;;;45.13;20.73;;;;;;;1.53;100.00;97482.97;5069150;28;20062;-76
2021/03/16 03:19:35;;;;;;;47.78;18.50;;;;;;;1.55;100.00;97486.22;5069774;28;20048;-76
2021/03/16 03:22:18;;;;;;;41.40;17.52;;;;;;;1.59;100.00;97477.41;5069412;28;20446;-76
2021/03/16 03:24:46;;;;;;;47.55;17.33;;;;;;;1.59;100.00;97487.28;5070412;28;20097;-76
2021/03/16 03:27:52;;;;;;;40.78;17.30;;;;;;;1.65;100.00;97487.03;5069144;28;20055;-77
2021/03/16 03:30:23;;;;;;;40.15;18.45;;;;;;;1.68;100.00;97493.69;5070792;28;20044;-76
2021/03/16 03:32:50;;;;;;;37.15;15.93;;;;;;;1.71;100.00;97488.66;5074795;28;20044;-78
2021/03/16 03:35:18;;;;;;;38.53;15.80;;;;;;;1.72;100.00;97497.47;5074812;28;20055;-77
2021/03/16 03:37:48;;;;;;;37.97;16.13;;;;;;;1.75;100.00;97503.09;5071621;28;20060;-77
2021/03/16 03:40:15;;;;;;;31.83;14.07;;;;;;;1.75;100.00;97499.63;5071696;28;20044;-77
2021/03/16 03:42:43;;;;;;;32.72;13.27;;;;;;;1.77;100.00;97510.81;5070543;28;20044;-76
2021/03/16 03:45:11;;;;;;;27.95;11.80;;;;;;;1.77;100.00;97506.31;5068863;28;20044;-77
2021/03/16 03:47:40;;;;;;;25.65;11.05;;;;;;;1.79;100.00;97506.03;5068829;28;20052;-77
2021/03/16 03:50:08;;;;;;;22.30;10.10;;;;;;;1.73;100.00;97510.53;5069039;28;20040;-76
2021/03/16 03:52:35;;;;;;;26.42;9.52;;;;;;;1.76;100.00;97501.22;5070134;28;20698;-76
2021/03/16 03:55:05;;;;;;;23.92;9.13;;;;;;;1.79;100.00;97500.69;5070363;28;20036;-76
2021/03/16 03:57:51;;;;;;;18.33;8.10;;;;;;;1.75;100.00;97513.78;5070854;28;20468;-76
2021/03/16 04:00:18;;;;;;;18.52;7.53;;;;;;;1.74;100.00;97508.69;5070482;28;20048;-75
2021/03/16 04:02:45;;;;;;;16.40;7.63;;;;;;;1.75;100.00;97512.97;5052358;28;20059;-77
2021/03/16 04:05:15;;;;;;;24.42;6.93;;;;;;;1.76;100.00;97520.69;5068861;28;20043;-76
2021/03/16 04:07:42;;;;;;;17.77;7.03;;;;;;;1.74;100.00;97516.69;5070190;28;20040;-77
2021/03/16 04:10:10;;;;;;;20.40;7.35;;;;;;;1.75;100.00;97521.78;5068543;28;20411;-77
2021/03/16 04:12:37;;;;;;;22.17;7.78;;;;;;;1.75;100.00;97521.78;5068871;28;20105;-75
2021/03/16 04:15:08;;;;;;;20.27;7.20;;;;;;;1.78;100.00;97515.13;5070156;28;20291;-77
2021/03/16 04:17:35;;;;;;;18.02;6.75;;;;;;;1.71;100.00;97517.19;5069246;28;20128;-76
2021/03/16 04:20:06;;;;;;;18.52;7.30;;;;;;;1.68;100.00;97525.72;5068925;28;20231;-76
2021/03/16 04:22:33;;;;;;;18.08;6.55;;;;;;;1.72;100.00;97529.50;5067881;28;20446;-77
2021/03/16 04:24:59;;;;;;;20.90;6.72;;;;;;;1.71;100.00;97523.34;5069967;28;20508;-76
2021/03/16 04:27:26;;;;;;;18.83;7.00;;;;;;;1.71;100.00;97536.69;5068928;28;20048;-77
2021/03/16 04:29:52;;;;;;;19.67;7.38;;;;;;;1.72;100.00;97526.81;5068598;28;20045;-76
2021/03/16 04:32:19;;;;;;;22.67;8.30;;;;;;;1.74;100.00;97533.50;5069690;28;20055;-77
2021/03/16 04:34:45;;;;;;;20.20;8.73;;;;;;;1.74;100.00;97527.34;5069682;28;20513;-76
2021/03/16 04:37:12;;;;;;;20.05;9.18;;;;;;;1.79;100.00;97532.72;5067229;28;20051;-77
2021/03/16 04:39:38;;;;;;;21.92;10.98;;;;;;;1.77;100.00;97542.84;5052137;28;20052;-76
2021/03/16 04:42:05;;;;;;;28.90;11.15;;;;;;;1.81;100.00;97535.91;5068106;28;20049;-76
2021/03/16 04:44:31;;;;;;;25.83;11.32;;;;;;;1.80;100.00;97550.34;5071376;28;20032;-76
2021/03/16 04:46:58;;;;;;;28.77;13.13;;;;;;;1.81;100.00;97547.41;5069725;28;20062;-77
2021/03/16 04:49:24;;;;;;;39.83;15.45;;;;;;;1.82;100.00;97537.53;5068586;28;20469;-77
2021/03/16 04:51:50;;;;;;;38.35;16.95;;;;;;;1.95;100.00;97547.72;5068991;28;20143;-77
2021/03/16 04:54:18;;;;;;;40.63;17.75;;;;;;;1.94;100.00;97559.44;5068879;28;20472;-76
2021/03/16 04:56:44;;;;;;;47.55;18.27;;;;;;;1.93;100.00;97557.88;5069605;28;20060;-77
2021/03/16 04:59:10;;;;;;;42.17;18.45;;;;;;;1.98;100.00;97563.22;5068063;28;20380;-77
2021/03/16 05:01:36;;;;;;;47.65;17.08;;;;;;;2.00;100.00;97558.41;5068508;28;20048;-77
2021/03/16 05:04:03;;;;;;;43.10;17.00;;;;;;;2.07;100.00;97572.31;5068130;28;20041;-77
2021/03/16 05:06:29;;;;;;;48.50;16.83;;;;;;;2.06;100.00;97567.25;5050416;28;20067;-77
2021/03/16 05:08:57;;;;;;;43.05;17.58;;;;;;;2.07;100.00;97571.50;5067745;28;20307;-76
2021/03/16 05:11:24;;;;;;;46.58;17.23;;;;;;;2.13;100.00;97575.81;5067809;28;20052;-76
2021/03/16 05:13:50;;;;;;;42.47;16.42;;;;;;;2.10;100.00;97569.13;5068813;28;20048;-76
2021/03/16 05:16:16;;;;;;;42.45;16.83;;;;;;;2.10;100.00;97579.81;5067442;28;20492;-76
2021/03/16 05:18:43;;;;;;;47.15;18.02;;;;;;;2.11;100.00;97581.44;5068865;28;20055;-78
2021/03/16 05:21:09;;;;;;;41.53;17.02;;;;;;;2.10;100.00;97589.69;5069397;28;20052;-78
2021/03/16 05:23:35;;;;;;;50.17;16.33;;;;;;;2.46;100.00;97580.72;5070476;28;20055;-77
2021/03/16 05:26:01;;;;;;;33.90;15.65;;;;;;;2.53;100.00;97599.16;5070846;28;20488;-78
2021/03/16 05:28:27;;;;;;;43.58;15.20;;;;;;;2.64;100.00;97595.44;5068357;28;20045;-77
2021/03/16 05:30:53;;;;;;;38.85;15.77;;;;;;;2.59;100.00;97590.88;5068257;28;20491;-77
2021/03/16 05:33:20;;;;;;;44.30;15.27;;;;;;;2.40;100.00;97595.91;5067211;28;20052;-76
2021/03/16 05:35:47;;;;;;;40.63;15.35;;;;;;;2.24;100.00;97596.97;5066790;28;20097;-76
2021/03/16 05:38:14;;;;;;;36.03;15.40;;;;;;;2.16;100.00;97591.31;5062425;28;20363;-77
2021/03/16 05:40:40;;;;;;;39.22;15.95;;;;;;;2.16;100.00;97618.00;5068710;28;20049;-76
2021/03/16 05:43:07;;;;;;;35.50;17.05;;;;;;;2.17;100.00;97619.63;5068379;28;20044;-76
2021/03/16 05:45:33;;;;;;;38.50;16.90;;;;;;;2.16;100.00;97607.34;5058866;28;20065;-77
2021/03/16 05:48:01;;;;;;;42.50;18.10;;;;;;;2.08;100.00;97610.50;5047836;28;20238;-76
2021/03/16 05:50:28;;;;;;;50.63;18.67;;;;;;;2.13;100.00;97632.69;5078135;23;20041;-76
2021/03/16 05:52:55;;;;;;;41.75;19.48;;;;;;;2.10;100.00;97622.53;5057349;28;20037;-74
2021/03/16 05:55:23;;;;;;;45.10;19.95;;;;;;;2.07;100.00;97635.59;5055594;28;20071;-76
2021/03/16 05:57:50;;;;;;;44.00;19.88;;;;;;;2.09;100.00;97636.16;5051397;28;20049;-76
2021/03/16 06:00:17;;;;;;;41.95;20.40;;;;;;;2.06;100.00;97642.00;5051301;28;20467;-76
2021/03/16 06:02:43;;;;;;;49.15;21.10;;;;;;;2.11;100.00;97664.19;5052623;28;20462;-77
2021/03/16 06:05:11;;;;;;;47.22;21.35;;;;;;;2.20;100.00;97659.94;5050291;28;20043;-77
2021/03/16 06:07:37;;;;;;;46.55;21.50;;;;;;;2.28;100.00;97658.66;5050684;28;20045;-77
2021/03/16 06:10:03;;;;;;;44.33;20.70;;;;;;;2.21;100.00;97664.25;5050626;28;20045;-77
2021/03/16 06:12:35;;;;;;;54.97;22.92;;;;;;;2.13;100.00;97674.59;5050105;28;20041;-78
2021/03/16 06:15:19;;;;;;;55.85;23.80;;;;;;;2.15;100.00;97686.63;5037135;28;20147;-75
2021/03/16 06:17:47;;;;;;;55.80;22.77;;;;;;;2.19;100.00;97677.06;5052616;28;20048;-75
2021/03/16 06:20:29;;;;;;;40.60;21.58;;;;;;;2.14;100.00;97684.22;5052989;28;20052;-77
2021/03/16 06:23:01;;;;;;;51.28;21.02;;;;;;;2.17;100.00;97683.72;5070091;28;20060;-77
2021/03/16 06:25:33;;;;;;;42.45;19.92;;;;;;;2.20;100.00;97693.84;5054065;28;20069;-77
2021/03/16 06:28:05;;;;;;;36.65;16.42;;;;;;;2.14;100.00;97695.69;5038204;28;20214;-76
2021/03/16 06:30:33;;;;;;;35.03;17.10;;;;;;;2.12;100.00;97697.81;5054494;28;20064;-77
2021/03/16 06:33:03;;;;;;;38.60;16.13;;;;;;;2.09;100.00;97711.69;5053873;28;20048;-77
2021/03/16 06:35:30;;;;;;;40.50;15.30;;;;;;;2.15;100.00;97702.66;5054134;28;20148;-76
2021/03/16 06:38:00;;;;;;;33.22;14.48;;;;;;;2.10;100.00;97699.97;5060174;28;20021;-75
2021/03/16 06:40:30;;;;;;;37.38;14.52;;;;;;;2.14;100.00;97711.72;5059355;28;20052;-76
2021/03/16 06:43:12;;;;;;;35.33;14.70;;;;;;;2.16;100.00;97720.28;5055549;28;20055;-77
2021/03/16 06:45:40;;;;;;;32.05;13.30;;;;;;;2.16;100.00;97714.16;5037429;28;20045;-76
2021/03/16 06:48:16;;;;;;;32.92;13.27;;;;;;;2.15;100.00;97710.66;5071356;28;20439;-78
2021/03/16 06:50:43;;;;;;;28.88;11.95;;;;;;;2.18;100.00;97725.38;5054068;28;20037;-77
2021/03/16 06:53:14;;;;;;;26.67;11.45;;;;;;;2.11;100.00;97722.13;5054617;28;20044;-77
2021/03/16 06:55:54;;;;;;;31.98;12.20;;;;;;;2.12;100.00;97734.41;5056038;28;20514;-77
2021/03/16 06:58:30;;;;;;;37.22;13.10;;;;;;;2.20;100.00;97742.72;5056338;28;20041;-78
2021/03/16 07:01:13;;;;;;;36.13;12.77;;;;;;;2.22;100.00;97742.50;5036020;28;20041;-77
2021/03/16 07:03:40;;;;;;;28.58;12.18;;;;;;;2.25;100.00;97744.63;5036487;28;20060;-77
2021/03/16 07:06:14;;;;;;;32.05;11.70;;;;;;;2.26;100.00;97744.38;5052920;28;20098;-77
2021/03/16 07:08:42;;;;;;;30.95;11.27;;;;;;;2.27;100.00;97756.66;5053129;28;20529;-78
2021/03/16 07:11:16;;;;;;;27.00;10.35;;;;;;;2.29;100.00;97749.22;5060552;28;20045;-76
2021/03/16 07:13:43;;;;;;;29.75;11.90;;;;;;;2.30;100.00;97750.00;5054605;28;20051;-78
2021/03/16 07:16:11;;;;;;;31.08;10.85;;;;;;;2.28;100.00;97750.25;5052825;28;20064;-77
2021/03/16 07:18:42;;;;;;;28.92;10.57;;;;;;;2.27;100.00;97759.31;5053451;28;20542;-77
2021/03/16 07:21:26;;;;;;;27.98;10.23;;;;;;;2.32;100.00;97767.38;5052290;28;20044;-78
2021/03/16 07:23:56;;;;;;;29.13;10.00;;;;;;;2.35;100.00;97764.19;5062839;28;20197;-76
2021/03/16 07:26:25;;;;;;;20.05;10.13;;;;;;;2.46;100.00;97768.53;5051875;28;20056;-76
2021/03/16 07:28:51;;;;;;;31.98;10.40;;;;;;;2.49;100.00;97762.66;5052008;28;20045;-76
2021/03/16 07:31:18;;;;;;;27.80;11.50;;;;;;;2.66;100.00;97767.03;5072217;28;20432;-77
2021/03/16 07:33:49;;;;;;;23.25;11.15;;;;;;;2.78;100.00;97767.59;5052542;28;20044;-77
2021/03/16 07:36:15;;;;;;;29.77;10.85;;;;;;;2.73;100.00;97772.94;5068794;28;20057;-76
2021/03/16 07:38:43;;;;;;;26.00;10.20;;;;;;;2.75;100.00;97771.59;5051625;28;20219;-76
2021/03/16 07:41:09;;;;;;;25.05;10.20;;;;;;;2.93;100.00;97783.69;5051105;28;20055;-77
2021/03/16 07:43:39;;;;;;;27.23;10.63;;;;;;;2.91;100.00;97786.66;5052902;28;20123;-78
2021/03/16 07:46:13;;;;;;;28.98;9.57;;;;;;;2.97;100.00;97785.56;5053571;28;20052;-77
2021/03/16 07:48:45;;;;;;;;;;;;;;;3.09;100.00;97794.19;5053742;28;20041;-76
2021/03/16 07:51:13;;;;;;;24.50;10.23;;;;;;;3.03;100.00;97783.72;5051145;28;20470;-77
2021/03/16 07:53:41;;;;;;;27.27;9.98;;;;;;;3.09;100.00;97785.34;5035094;28;20329;-76
2021/03/16 07:56:09;;;;;;;26.20;10.70;;;;;;;3.17;100.00;97796.34;5052114;28;20059;-77
2021/03/16 07:58:45;;;;;;;25.58;10.63;;;;;;;3.03;100.00;97781.06;5051649;28;20051;-78
2021/03/16 08:01:12;;;;;;;17.83;9.23;;;;;;;3.02;100.00;97785.59;5052829;28;20305;-77
2021/03/16 08:03:41;;;;;;;26.67;9.60;;;;;;;3.03;100.00;97797.09;5051223;28;20495;-77
2021/03/16 08:06:08;;;;;;;20.48;9.98;;;;;;;3.12;100.00;97788.28;5052275;28;20423;-77
2021/03/16 08:08:41;;;;;;;27.35;11.18;;;;;;;3.27;100.00;97795.56;5061774;28;20065;-75
2021/03/16 08:11:12;;;;;;;20.02;10.13;;;;;;;3.37;100.00;97803.63;5067879;28;20041;-76
2021/03/16 08:13:52;;;;;;;24.05;9.57;;;;;;;3.46;100.00;97798.56;5052932;28;20063;-76
2021/03/16 08:16:18;;;;;;;30.52;10.45;;;;;;;3.69;100.00;97814.91;5050807;28;20045;-76
2021/03/16 08:18:46;;;;;;;21.30;9.68;;;;;;;3.70;100.00;97795.09;5050895;28;20110;-77
2021/03/16 08:21:14;;;;;;;19.20;9.10;;;;;;;3.31;100.00;97802.00;5052366;28;20466;-77
2021/03/16 08:23:40;;;;;;;21.90;8.48;;;;;;;3.52;100.00;97810.88;5050252;28;20310;-77
2021/03/16 08:26:07;;;;;;;23.38;7.85;;;;;;;3.42;100.00;97805.50;5050794;28;20163;-79
2021/03/16 08:28:34;;;;;;;16.83;8.88;;;;;;;3.31;100.00;97818.03;5051097;28;20049;-77
2021/03/16 08:31:17;;;;;;;19.23;7.55;;;;;;;3.17;100.00;97818.81;5050176;28;20056;-76
2021/03/16 08:33:48;;;;;;;17.20;8.35;;;;;;;3.24;100.00;97817.50;5050162;28;20528;-76
2021/03/16 08:36:13;;;;;;;18.95;7.57;;;;;;;3.02;100.00;97822.25;5050125;28;20055;-76
2021/03/16 08:38:40;;;;;;;19.33;8.35;;;;;;;2.92;100.00;97827.53;5049836;28;20040;-76
2021/03/16 08:41:13;;;;;;;21.20;8.35;;;;;;;2.84;100.00;97823.50;5049015;28;20049;-76
2021/03/16 08:43:48;;;;;;;20.38;7.70;;;;;;;3.07;100.00;97831.06;5049564;28;20451;-75
2021/03/16 08:46:14;;;;;;;16.10;7.63;;;;;;;3.40;100.00;97818.34;5049980;28;20500;-76
2021/03/16 08:48:43;;;;;;;19.63;7.40;;;;;;;3.49;100.00;97836.28;5050820;28;20041;-77
2021/03/16 08:51:11;;;;;;;13.77;7.13;;;;;;;3.87;100.00;97816.28;5051750;28;20124;-76
2021/03/16 08:53:37;;;;;;;19.25;6.93;;;;;;;3.87;100.00;97818.97;5055017;28;20519;-77
2021/03/16 08:56:03;;;;;;;19.27;6.13;;;;;;;4.14;100.00;97816.81;5052316;28;20065;-76
2021/03/16 08:58:31;;;;;;;14.05;6.38;;;;;;;4.07;100.00;97824.31;5051707;28;20627;-77
2021/03/16 09:01:02;;;;;;;19.73;6.40;;;;;;;3.98;100.00;97817.06;5050295;28;20408;-76
2021/03/16 09:03:30;;;;;;;15.95;6.30;;;;;;;3.89;100.00;97822.16;5049690;28;20045;-75
2021/03/16 09:05:57;;;;;;;17.90;6.45;;;;;;;3.88;100.00;97825.91;5051715;28;20504;-76
2021/03/16 09:08:24;;;;;;;15.75;6.03;;;;;;;3.77;100.00;97833.13;5048865;28;20509;-76
2021/03/16 09:10:50;;;;;;;13.55;5.60;;;;;;;3.47;100.00;97840.28;5048557;28;20048;-78
2021/03/16 09:13:27;;;;;;;14.32;6.50;;;;;;;3.53;100.00;97840.06;5047900;28;20075;-77
2021/03/16 09:15:53;;;;;;;14.52;7.00;;;;;;;3.56;100.00;97841.41;5049944;28;20052;-77
2021/03/16 09:18:24;;;;;;;15.80;7.18;;;;;;;3.64;100.00;97832.81;5051556;28;20116;-76
2021/03/16 09:20:50;;;;;;;13.52;6.93;;;;;;;3.66;100.00;97834.19;5049301;28;20419;-75
2021/03/16 09:23:16;;;;;;;18.27;6.85;;;;;;;3.46;100.00;97839.47;5049270;28;20045;-76
2021/03/16 09:25:45;;;;;;;13.77;6.05;;;;;;;3.36;100.00;97844.00;5049627;28;20044;-76
2021/03/16 09:28:14;;;;;;;16.30;6.82;;;;;;;3.46;100.00;97839.47;5054909;28;20041;-74
2021/03/16 09:30:50;;;;;;;17.05;7.78;;;;;;;3.70;100.00;97843.28;5051648;28;20048;-76
2021/03/16 09:33:18;;;;;;;21.83;7.63;;;;;;;3.93;100.00;97846.53;5049037;28;20041;-76
2021/03/16 09:36:02;;;;;;;16.65;8.02;;;;;;;3.97;100.00;97855.66;5050902;28;20120;-76
2021/03/16 09:38:29;;;;;;;15.70;8.10;;;;;;;4.04;100.00;97853.50;5051268;28;20060;-76
2021/03/16 09:40:55;;;;;;;16.63;7.53;;;;;;;3.91;100.00;97854.03;5050181;28;20040;-77
2021/03/16 09:43:31;;;;;;;18.58;7.88;;;;;;;3.82;100.00;97843.03;5049218;28;20056;-76
2021/03/16 09:46:07;;;;;;;17.35;7.25;;;;;;;3.85;100.00;97841.69;5050549;28;20120;-77
2021/03/16 09:48:35;;;;;;;17.80;7.65;;;;;;;4.05;100.00;97849.75;5050827;28;20048;-77
2021/03/16 09:51:11;;;;;;;13.23;6.90;;;;;;;4.03;100.00;97852.69;5055057;28;20052;-76
2021/03/16 09:53:40;;;;;;;14.10;6.82;;;;;;;3.85;100.00;97839.00;5054902;28;20049;-76
2021/03/16 09:56:09;;;;;;;18.92;6.72;;;;;;;3.99;100.00;97864.22;5054231;28;20084;-74
2021/03/16 09:58:38;;;;;;;15.95;7.70;;;;;;;4.38;100.00;97865.28;5039490;28;20500;-76
2021/03/16 10:01:04;;;;;;;9.82;5.80;;;;;;;5.09;100.00;97857.06;5055882;28;20071;-76
2021/03/16 10:03:31;;;;;;;15.73;6.45;;;;;;;5.17;100.00;97864.56;5056044;28;20051;-75
2021/03/16 10:06:05;;;;;;;17.40;6.80;;;;;;;5.25;100.00;97869.38;5055395;28;20052;-77
2021/03/16 10:08:32;;;;;;;10.32;5.82;;;;;;;4.96;100.00;97864.63;5056189;28;20071;-76
2021/03/16 10:11:00;;;;;;;14.45;5.00;;;;;;;4.87;100.00;97857.44;5056945;28;20052;-76
2021/03/16 10:13:36;;;;;;;11.57;5.47;;;;;;;4.94;100.00;97863.31;5060845;28;20063;-75
2021/03/16 10:16:11;;;;;;;16.67;5.60;;;;;;;4.63;100.00;97862.56;5063657;28;20072;-77
2021/03/16 10:18:44;;;;;;;12.65;5.40;;;;;;;4.55;100.00;97878.41;5063670;28;20082;-76
2021/03/16 10:21:14;;;;;;;13.07;5.18;;;;;;;4.58;100.00;97867.94;5064069;28;20052;-76
2021/03/16 10:23:41;;;;;;;15.65;6.13;;;;;;;4.54;100.00;97877.63;5065885;28;20048;-76
2021/03/16 10:26:10;;;;;;;8.95;5.75;;;;;;;4.39;100.00;97880.28;5061297;28;20318;-76
2021/03/16 10:28:43;;;;;;;14.02;5.68;;;;;;;4.32;100.00;97880.56;5064143;28;20049;-77
2021/03/16 10:31:15;;;;;;;12.18;5.32;;;;;;;4.25;100.00;97873.88;5064786;28;20045;-77
2021/03/16 10:33:43;;;;;;;9.63;5.28;;;;;;;4.41;100.00;97872.81;5059397;28;20125;-78
2021/03/16 10:36:11;;;;;;;13.05;6.10;;;;;;;4.49;100.00;97880.28;5056292;28;20447;-76
2021/03/16 10:38:37;;;;;;;15.13;6.75;;;;;;;4.49;100.00;97872.22;5057439;28;20049;-77
2021/03/16 10:41:03;;;;;;;16.52;5.65;;;;;;;4.29;100.00;97875.75;5056887;28;20049;-78
2021/03/16 10:43:30;;;;;;;13.02;5.40;;;;;;;4.42;100.00;97879.75;5056227;28;20045;-77
2021/03/16 10:45:57;;;;;;;10.52;5.10;;;;;;;4.64;100.00;97871.44;5057275;28;20122;-77
2021/03/16 10:48:30;;;;;;;11.63;5.57;;;;;;;5.51;100.00;97865.50;5057277;28;20193;-76
2021/03/16 10:50:56;;;;;;;8.77;4.78;;;;;;;6.00;100.00;97873.56;5059278;28;20653;-77
2021/03/16 10:53:24;;;;;;;9.57;4.93;;;;;;;7.05;100.00;97879.06;5058921;28;20120;-77
2021/03/16 10:55:59;;;;;;;;;;;;;;;7.82;100.00;97875.94;5041592;28;20152;-76
2021/03/16 10:58:27;;;;;;;9.48;4.43;;;;;;;6.26;100.00;97861.53;5057860;28;19927;-78
2021/03/16 11:00:53;;;;;;;11.00;4.78;;;;;;;5.65;100.00;97878.03;5053784;28;20044;-77
2021/03/16 11:03:27;;;;;;;11.57;5.30;;;;;;;5.68;100.00;97876.66;5052764;28;20478;-77
2021/03/16 11:05:54;;;;;;;9.07;5.15;;;;;;;5.63;100.00;97882.06;5052590;28;20171;-77
2021/03/16 11:08:20;;;;;;;12.95;4.97;;;;;;;7.62;100.00;97875.41;5053753;28;20128;-78
2021/03/16 11:10:46;;;;;;;12.85;5.57;;;;;;;8.54;100.00;97877.28;5051102;28;20055;-76
2021/03/16 11:13:13;;;;;;;9.35;3.92;;;;;;;7.50;100.00;97889.31;5034776;28;20049;-77
2021/03/16 11:15:39;;;;;;;13.10;4.47;;;;;;;6.46;100.00;97872.13;5052242;28;20056;-75
2021/03/16 11:18:05;;;;;;;12.70;4.35;;;;;;;6.08;100.00;97881.03;5051462;28;20053;-75
2021/03/16 11:20:32;;;;;;;11.55;4.97;;;;;;;5.50;100.00;97888.03;5050850;28;20068;-75
2021/03/16 11:22:58;;;;;;;11.75;5.00;;;;;;;5.25;100.00;97885.47;5050880;28;20045;-75
2021/03/16 11:25:24;;;;;;;12.77;5.68;;;;;;;5.18;100.00;97893.81;5051413;28;20047;-76
2021/03/16 11:27:53;;;;;;;15.35;4.95;;;;;;;5.47;100.00;97899.34;5050503;28;20041;-76
2021/03/16 11:30:19;;;;;;;13.57;4.75;;;;;;;5.92;100.00;97885.69;5050636;28;20586;-77